Sanborn, Nebraska
Current Conditions -  °F | °C
As of 3:15 PM on Sunday 23 Nov 2014 (Local Time) from K2V5 Reporting Station
Clear Clear  
Wind Chill: 38°   Ceiling: Unl
Heat Index: 46°   Visibility: 10mi
Dew Point: 10°   Wind: 21mph
Humidity: 23%   Direction: 330°NNW
Pressure: 29.73"   Gusts: 35mph
Location:  40.1596°N, 101.947°W
Report Text: K2V5 232215Z AUTO 33018G30KT 10SM CLR 08/M12 A2973 RMK AO2 T00791120
Loading
Personal Weather Stations






























Interactive Weather Map New forecast layout! Learn more

10-Day Weather Forecast

Advertisements
Track Severe Weather on mobile